Time;durP1;ratioP1;P1;durP2;ratioP2;P2;SDS_P1;SDS_P2;PMS_P1;PMS_P2;Temp;Humidity;BMP_temperature;BMP_pressure;BME280_temperature;BME280_humidity;BME280_pressure;Samples;Min_cycle;Max_cycle;Signal;HPM_P1;HPM_P2
2022/11/14 00:00:35;;;;;;;63.35;29.67;;;8.20;99.90;;;;;;5092862;28;20016;-76
2022/11/14 00:03:06;;;;;;;66.90;29.60;;;8.20;99.90;;;;;;5095358;28;20071;-77
2022/11/14 00:05:32;;;;;;;67.18;28.83;;;8.20;99.90;;;;;;5091396;28;20032;-77
2022/11/14 00:07:58;;;;;;;60.97;28.50;;;8.10;99.90;;;;;;5089761;28;20028;-73
2022/11/14 00:10:24;;;;;;;67.88;29.73;;;8.20;99.90;;;;;;5098373;28;20020;-75
2022/11/14 00:12:50;;;;;;;64.40;28.75;;;8.20;99.90;;;;;;5105988;28;20028;-77
2022/11/14 00:15:16;;;;;;;59.15;28.27;;;8.20;99.90;;;;;;5106040;28;20021;-74
2022/11/14 00:17:41;;;;;;;57.95;28.45;;;8.20;99.90;;;;;;5105530;28;20030;-77
2022/11/14 00:20:09;;;;;;;59.60;28.88;;;8.20;99.90;;;;;;5104936;28;20048;-77
2022/11/14 00:22:35;;;;;;;55.30;28.33;;;8.20;99.90;;;;;;5105808;28;20031;-77
2022/11/14 00:25:00;;;;;;;60.33;29.92;;;8.20;99.90;;;;;;5104038;28;20035;-74
2022/11/14 00:27:26;;;;;;;55.55;28.63;;;8.20;99.90;;;;;;5105755;28;20024;-76
2022/11/14 00:29:51;;;;;;;63.28;27.05;;;8.30;99.90;;;;;;5105768;28;20081;-77
2022/11/14 00:32:17;;;;;;;64.55;29.63;;;8.20;99.90;;;;;;5105032;28;20058;-77
2022/11/14 00:34:43;;;;;;;62.80;28.67;;;8.20;99.90;;;;;;5105506;28;20024;-75
2022/11/14 00:37:08;;;;;;;63.55;29.42;;;8.20;99.90;;;;;;5105492;28;20024;-73
2022/11/14 00:39:34;;;;;;;64.68;28.50;;;8.20;99.90;;;;;;5103605;28;20028;-72
2022/11/14 00:42:00;;;;;;;63.15;29.13;;;8.20;99.90;;;;;;5105306;28;20051;-75
2022/11/14 00:44:25;;;;;;;66.35;29.98;;;8.20;99.90;;;;;;5103937;28;20028;-77
2022/11/14 00:46:51;;;;;;;67.07;29.58;;;8.20;99.90;;;;;;5086134;28;20059;-77
2022/11/14 00:49:16;;;;;;;72.50;30.95;;;8.20;99.90;;;;;;5103266;28;20032;-71
2022/11/14 00:51:42;;;;;;;67.30;31.48;;;8.20;99.90;;;;;;5084346;28;20363;-74
2022/11/14 00:54:07;;;;;;;62.03;29.80;;;8.20;99.90;;;;;;5083173;28;20096;-77
2022/11/14 00:56:33;;;;;;;69.32;30.58;;;8.10;99.90;;;;;;5084723;28;20043;-77
2022/11/14 00:58:59;;;;;;;66.82;30.30;;;8.20;99.90;;;;;;5098221;28;20036;-77
2022/11/14 01:01:25;;;;;;;59.17;28.50;;;8.10;99.90;;;;;;5104754;28;20028;-78
2022/11/14 01:03:51;;;;;;;64.25;28.88;;;8.10;99.90;;;;;;5103769;28;20514;-76
2022/11/14 01:06:18;;;;;;;59.90;26.88;;;8.10;99.90;;;;;;5104766;28;20115;-77
2022/11/14 01:08:43;;;;;;;68.03;28.70;;;8.10;99.90;;;;;;5104715;28;20024;-77
2022/11/14 01:11:12;;;;;;;59.90;28.77;;;8.10;99.90;;;;;;5089515;28;20059;-75
2022/11/14 01:13:38;;;;;;;66.45;29.38;;;8.10;99.90;;;;;;5082837;28;20055;-75
2022/11/14 01:16:04;;;;;;;59.00;27.92;;;8.10;99.90;;;;;;5083055;28;20028;-74
2022/11/14 01:18:33;;;;;;;59.22;27.48;;;8.10;99.90;;;;;;5084227;28;20055;-71
2022/11/14 01:20:59;;;;;;;61.75;28.42;;;8.10;99.90;;;;;;5083958;28;20119;-73
2022/11/14 01:23:25;;;;;;;64.80;29.10;;;8.10;99.90;;;;;;5084568;28;20047;-76
2022/11/14 01:25:50;;;;;;;60.90;29.25;;;8.10;99.90;;;;;;5084420;28;20032;-75
2022/11/14 01:28:18;;;;;;;63.88;30.35;;;8.00;99.90;;;;;;5084011;28;20033;-75
2022/11/14 01:30:54;;;;;;;64.68;28.30;;;8.10;99.90;;;;;;5087074;28;20047;-75
2022/11/14 01:33:19;;;;;;;68.68;30.23;;;8.10;99.90;;;;;;5087064;28;20127;-77
2022/11/14 01:35:45;;;;;;;70.30;29.98;;;8.10;99.90;;;;;;5082464;28;20070;-75
2022/11/14 01:38:13;;;;;;;67.85;29.50;;;8.10;99.90;;;;;;5084086;28;20535;-73
2022/11/14 01:40:44;;;;;;;71.78;30.00;;;8.10;99.90;;;;;;5083877;28;20099;-75
2022/11/14 01:43:15;;;;;;;63.83;28.63;;;8.10;99.90;;;;;;5083995;28;20392;-75
2022/11/14 01:45:41;;;;;;;65.43;28.67;;;8.10;99.90;;;;;;5084198;28;20536;-76
2022/11/14 01:48:20;;;;;;;58.00;26.88;;;8.10;99.90;;;;;;5094616;28;20047;-75
2022/11/14 01:50:48;;;;;;;60.95;28.48;;;8.10;99.90;;;;;;5103039;28;20024;-76
2022/11/14 01:53:14;;;;;;;66.75;28.80;;;8.10;99.90;;;;;;5103928;28;20024;-76
2022/11/14 01:55:40;;;;;;;62.05;29.15;;;8.00;99.90;;;;;;5103737;28;20039;-76
2022/11/14 01:58:06;;;;;;;60.13;27.20;;;8.10;99.90;;;;;;5104007;28;20030;-76
2022/11/14 02:00:31;;;;;;;61.28;28.33;;;8.10;99.90;;;;;;5083757;28;20032;-74
2022/11/14 02:02:58;;;;;;;62.83;29.50;;;8.00;99.90;;;;;;5083855;28;20055;-76
2022/11/14 02:05:24;;;;;;;59.53;26.45;;;8.00;99.90;;;;;;5084173;28;20085;-75
2022/11/14 02:07:50;;;;;;;58.42;25.85;;;8.10;99.90;;;;;;5084042;28;20941;-76
2022/11/14 02:10:18;;;;;;;57.47;24.30;;;8.00;99.90;;;;;;5082484;28;20108;-75
2022/11/14 02:12:45;;;;;;;60.40;25.15;;;8.00;99.90;;;;;;5087879;28;20044;-75
2022/11/14 02:15:12;;;;;;;57.17;26.10;;;7.90;99.90;;;;;;5086224;28;20016;-77
2022/11/14 02:17:37;;;;;;;58.95;25.63;;;8.00;99.90;;;;;;5087904;28;20028;-75
2022/11/14 02:20:13;;;;;;;51.53;23.38;;;7.90;99.90;;;;;;5087416;28;20055;-73
2022/11/14 02:22:40;;;;;;;59.50;24.65;;;7.90;99.90;;;;;;5087431;28;20048;-76
2022/11/14 02:25:07;;;;;;;54.78;25.23;;;7.90;99.90;;;;;;5103218;28;20046;-75
2022/11/14 02:27:35;;;;;;;57.70;25.52;;;7.80;99.90;;;;;;5087528;28;20055;-74
2022/11/14 02:30:10;;;;;;;61.85;26.42;;;7.80;99.90;;;;;;5085816;28;20086;-75
2022/11/14 02:32:36;;;;;;;56.53;25.23;;;7.80;99.90;;;;;;5087559;28;20029;-75
2022/11/14 02:35:01;;;;;;;55.63;23.67;;;7.80;99.90;;;;;;5086070;28;20400;-74
2022/11/14 02:37:27;;;;;;;59.60;26.17;;;7.80;99.90;;;;;;5087101;28;20028;-77
2022/11/14 02:39:53;;;;;;;50.13;20.98;;;7.80;99.90;;;;;;5086200;28;20054;-76
2022/11/14 02:42:18;;;;;;;52.28;20.15;;;7.70;99.90;;;;;;5086029;28;20078;-71
2022/11/14 02:44:44;;;;;;;52.40;22.48;;;7.70;99.90;;;;;;5085928;28;20771;-76
2022/11/14 02:47:09;;;;;;;54.95;26.05;;;7.70;99.90;;;;;;5087162;28;20175;-76
2022/11/14 02:49:35;;;;;;;58.45;26.85;;;7.70;99.90;;;;;;5085555;28;20472;-74
2022/11/14 02:52:00;;;;;;;59.95;26.15;;;7.70;99.90;;;;;;5085144;28;20040;-76
2022/11/14 02:54:26;;;;;;;40.90;16.77;;;7.70;99.90;;;;;;5087229;28;20029;-73
2022/11/14 02:56:52;;;;;;;51.20;23.60;;;7.70;99.90;;;;;;5086944;28;20724;-72
2022/11/14 02:59:18;;;;;;;56.03;25.17;;;7.50;99.90;;;;;;5087168;28;20088;-74
2022/11/14 03:01:44;;;;;;;52.00;22.15;;;7.60;99.90;;;;;;5086886;28;20021;-73
2022/11/14 03:04:09;;;;;;;55.78;23.90;;;7.60;99.90;;;;;;5085008;28;20032;-73
2022/11/14 03:06:36;;;;;;;54.45;24.77;;;7.60;99.90;;;;;;5086732;28;20028;-73
2022/11/14 03:09:02;;;;;;;56.85;25.10;;;7.60;99.90;;;;;;5086629;28;20103;-75
2022/11/14 03:11:27;;;;;;;51.35;25.83;;;7.60;99.90;;;;;;5086483;28;20056;-74
2022/11/14 03:13:57;;;;;;;68.97;29.08;;;7.40;99.90;;;;;;5087146;28;20043;-76
2022/11/14 03:16:23;;;;;;;62.65;27.83;;;7.50;99.90;;;;;;5086851;28;20088;-75
2022/11/14 03:18:49;;;;;;;57.53;25.60;;;7.50;99.90;;;;;;5086521;28;20029;-75
2022/11/14 03:21:18;;;;;;;64.20;25.88;;;7.50;99.90;;;;;;5084841;28;20045;-79
2022/11/14 03:23:44;;;;;;;36.38;13.73;;;7.50;99.90;;;;;;5085472;28;20123;-75
2022/11/14 03:26:10;;;;;;;56.03;23.83;;;7.50;99.90;;;;;;5091949;28;20422;-75
2022/11/14 03:28:37;;;;;;;47.35;21.20;;;7.50;99.90;;;;;;5086944;28;20036;-75
2022/11/14 03:31:04;;;;;;;59.17;26.30;;;7.50;99.90;;;;;;5086971;28;20024;-74
2022/11/14 03:33:31;;;;;;;53.38;21.80;;;7.50;99.90;;;;;;5084965;28;20025;-77
2022/11/14 03:35:57;;;;;;;53.13;22.73;;;7.50;99.90;;;;;;5086468;28;20070;-73
2022/11/14 03:38:23;;;;;;;68.60;27.83;;;7.50;99.90;;;;;;5098155;28;20031;-76
2022/11/14 03:40:52;;;;;;;62.25;27.83;;;7.50;99.90;;;;;;5105460;28;20040;-73
2022/11/14 03:43:19;;;;;;;65.65;28.58;;;7.50;99.90;;;;;;5106562;28;20040;-74
2022/11/14 03:45:45;;;;;;;61.53;25.23;;;7.50;99.90;;;;;;5106500;28;20035;-74
2022/11/14 03:48:11;;;;;;;65.57;24.50;;;7.40;99.90;;;;;;5095458;28;20109;-75
2022/11/14 03:50:37;;;;;;;73.28;27.63;;;7.40;99.90;;;;;;5086174;28;20031;-76
2022/11/14 03:53:03;;;;;;;61.85;28.45;;;7.40;99.90;;;;;;5083982;28;20021;-75
2022/11/14 03:55:29;;;;;;;61.10;27.55;;;7.40;99.90;;;;;;5084658;28;20025;-76
2022/11/14 03:57:55;;;;;;;59.35;26.23;;;7.50;99.90;;;;;;5086253;28;20033;-76
2022/11/14 04:00:21;;;;;;;66.25;27.95;;;7.40;99.90;;;;;;5085709;28;20040;-75
2022/11/14 04:02:47;;;;;;;76.72;28.20;;;7.40;99.90;;;;;;5085844;28;20040;-75
2022/11/14 04:05:13;;;;;;;68.35;27.95;;;7.40;99.90;;;;;;5103714;28;20039;-78
2022/11/14 04:07:39;;;;;;;57.35;28.13;;;7.30;99.90;;;;;;5105621;28;20063;-73
2022/11/14 04:10:05;;;;;;;66.05;29.00;;;7.40;99.90;;;;;;5105909;28;20115;-77
2022/11/14 04:12:31;;;;;;;69.57;26.52;;;7.40;99.90;;;;;;5105931;28;20035;-75
2022/11/14 04:14:57;;;;;;;60.65;23.70;;;7.40;99.90;;;;;;5105823;28;20028;-73
2022/11/14 04:17:22;;;;;;;63.15;27.70;;;7.40;99.90;;;;;;5105893;28;20028;-76
2022/11/14 04:19:49;;;;;;;68.97;28.05;;;7.30;99.90;;;;;;5105770;28;20047;-75
2022/11/14 04:22:14;;;;;;;70.20;29.48;;;7.30;99.90;;;;;;5105529;28;20070;-77
2022/11/14 04:24:40;;;;;;;58.58;26.10;;;7.40;99.90;;;;;;5104459;28;20764;-75
2022/11/14 04:27:06;;;;;;;65.32;27.55;;;7.30;99.90;;;;;;5105602;28;20032;-75
2022/11/14 04:29:32;;;;;;;55.25;23.77;;;7.30;99.90;;;;;;5105347;28;20023;-77
2022/11/14 04:31:58;;;;;;;56.58;26.33;;;7.30;99.90;;;;;;5105708;28;20024;-76
2022/11/14 04:34:23;;;;;;;61.42;26.55;;;7.30;99.90;;;;;;5105681;28;20066;-78
2022/11/14 04:36:50;;;;;;;56.92;26.13;;;7.30;99.90;;;;;;5104106;28;20122;-74
2022/11/14 04:39:16;;;;;;;62.42;26.67;;;7.40;99.90;;;;;;5105494;28;20031;-74
2022/11/14 04:41:42;;;;;;;55.38;20.60;;;7.20;99.90;;;;;;5105388;28;20031;-72
2022/11/14 04:44:08;;;;;;;63.72;27.17;;;7.30;99.90;;;;;;5105098;28;20024;-76
2022/11/14 04:46:33;;;;;;;66.05;26.63;;;7.30;99.90;;;;;;5104234;28;20024;-74
2022/11/14 04:48:59;;;;;;;71.57;28.05;;;7.30;99.90;;;;;;5105279;28;20024;-75
2022/11/14 04:51:24;;;;;;;69.20;27.27;;;7.30;99.90;;;;;;5092997;28;20024;-73
2022/11/14 04:53:50;;;;;;;43.28;18.75;;;7.30;99.90;;;;;;5085209;28;20049;-73
2022/11/14 04:56:16;;;;;;;65.32;28.98;;;7.30;99.90;;;;;;5084719;28;20563;-73
2022/11/14 04:58:41;;;;;;;45.65;17.52;;;7.30;99.90;;;;;;5084699;28;20495;-74
2022/11/14 05:01:08;;;;;;;64.93;27.10;;;7.20;99.90;;;;;;5084766;28;20025;-74
2022/11/14 05:03:34;;;;;;;57.38;22.98;;;7.30;99.90;;;;;;5084328;28;20036;-73
2022/11/14 05:06:00;;;;;;;53.55;19.88;;;7.20;99.90;;;;;;5084710;28;20028;-72
2022/11/14 05:08:26;;;;;;;66.18;27.20;;;7.10;99.90;;;;;;5084820;28;20028;-75
2022/11/14 05:10:52;;;;;;;68.80;29.60;;;7.10;99.90;;;;;;5084616;28;20033;-76
2022/11/14 05:13:17;;;;;;;58.97;26.75;;;7.10;99.90;;;;;;5084621;28;20032;-77
2022/11/14 05:15:43;;;;;;;62.67;25.92;;;7.10;99.90;;;;;;5083315;28;20033;-74
2022/11/14 05:18:08;;;;;;;65.40;25.75;;;7.00;99.90;;;;;;5084094;28;20062;-74
2022/11/14 05:20:34;;;;;;;56.15;23.35;;;7.10;99.90;;;;;;5083065;28;20055;-71
2022/11/14 05:22:59;;;;;;;57.63;23.73;;;7.10;99.90;;;;;;5084628;28;20044;-74
2022/11/14 05:25:25;;;;;;;62.30;25.98;;;7.10;99.90;;;;;;5083099;28;20032;-74
2022/11/14 05:27:51;;;;;;;62.20;27.13;;;7.10;99.90;;;;;;5083170;28;20028;-73
2022/11/14 05:30:16;;;;;;;62.13;26.85;;;7.10;99.90;;;;;;5084459;28;20029;-72
2022/11/14 05:32:42;;;;;;;56.83;25.38;;;7.10;99.90;;;;;;5084181;28;20047;-75
2022/11/14 05:35:08;;;;;;;74.50;29.23;;;7.10;99.90;;;;;;5084565;28;20060;-73
2022/11/14 05:37:34;;;;;;;61.63;26.23;;;7.10;99.90;;;;;;5084228;28;20427;-74
2022/11/14 05:40:00;;;;;;;60.38;27.05;;;7.10;99.90;;;;;;5082806;28;20025;-73
2022/11/14 05:42:29;;;;;;;65.35;27.95;;;7.00;99.90;;;;;;5084672;28;20067;-77
2022/11/14 05:44:54;;;;;;;72.97;30.02;;;7.10;99.90;;;;;;5084249;28;20025;-78
2022/11/14 05:47:20;;;;;;;65.68;27.13;;;7.00;99.90;;;;;;5083957;28;20074;-75
2022/11/14 05:49:46;;;;;;;64.45;28.90;;;7.10;99.90;;;;;;5084454;28;20032;-77
2022/11/14 05:52:11;;;;;;;69.07;28.65;;;7.10;99.90;;;;;;5083441;28;20031;-75
2022/11/14 05:54:37;;;;;;;70.60;30.23;;;7.10;99.90;;;;;;5082779;28;20029;-76
2022/11/14 05:57:03;;;;;;;78.72;31.92;;;7.00;99.90;;;;;;5082759;28;20025;-77
2022/11/14 05:59:29;;;;;;;70.57;28.52;;;7.10;99.90;;;;;;5083842;28;20029;-78
2022/11/14 06:01:54;;;;;;;56.75;24.85;;;7.10;99.90;;;;;;5083973;28;20499;-75
2022/11/14 06:04:21;;;;;;;72.95;30.50;;;7.10;99.90;;;;;;5082635;28;20464;-76
2022/11/14 06:06:46;;;;;;;63.78;27.45;;;7.10;99.90;;;;;;5082604;28;20084;-79
2022/11/14 06:09:12;;;;;;;70.35;29.35;;;7.10;99.90;;;;;;5083936;28;20033;-74
2022/11/14 06:11:37;;;;;;;79.22;30.13;;;7.10;99.90;;;;;;5083978;28;20029;-76
2022/11/14 06:14:03;;;;;;;68.75;29.42;;;7.10;99.90;;;;;;5082335;28;20465;-78
2022/11/14 06:16:29;;;;;;;74.70;31.10;;;7.10;99.90;;;;;;5082658;28;20526;-78
2022/11/14 06:18:55;;;;;;;72.05;32.50;;;7.00;99.90;;;;;;5082478;28;20412;-77
2022/11/14 06:21:22;;;;;;;83.65;30.83;;;7.10;99.90;;;;;;5082195;28;20074;-74
2022/11/14 06:23:49;;;;;;;65.90;28.00;;;7.10;99.90;;;;;;5084035;28;20477;-74
2022/11/14 06:26:23;;;;;;;63.63;24.38;;;7.00;99.90;;;;;;5083783;28;20017;-71
2022/11/14 06:28:50;;;;;;;59.05;23.63;;;7.00;99.90;;;;;;5081999;28;20040;-76
2022/11/14 06:31:17;;;;;;;69.47;27.92;;;7.00;99.90;;;;;;5082454;28;20035;-76
2022/11/14 06:33:43;;;;;;;62.20;27.80;;;7.00;99.90;;;;;;5082395;28;20055;-73
2022/11/14 06:36:10;;;;;;;57.78;26.48;;;7.10;99.90;;;;;;5083276;28;20023;-75
2022/11/14 06:38:37;;;;;;;55.47;22.95;;;7.00;99.90;;;;;;5082302;28;20036;-74
2022/11/14 06:41:08;;;;;;;71.78;28.08;;;7.00;99.90;;;;;;5082091;28;20028;-76
2022/11/14 06:43:37;;;;;;;69.75;30.00;;;7.00;99.90;;;;;;5083691;28;20046;-75
2022/11/14 06:46:04;;;;;;;67.68;29.33;;;7.00;99.90;;;;;;5088571;28;20060;-73
2022/11/14 06:48:30;;;;;;;62.63;25.85;;;7.00;99.90;;;;;;5093906;28;20032;-74
2022/11/14 06:50:57;;;;;;;69.80;28.88;;;7.00;99.90;;;;;;5095716;28;20422;-72
2022/11/14 06:53:23;;;;;;;79.00;32.72;;;7.00;99.90;;;;;;5090628;28;20498;-71
2022/11/14 06:56:03;;;;;;;72.63;30.58;;;7.00;99.90;;;;;;5091484;28;20059;-71
2022/11/14 06:58:30;;;;;;;76.57;33.00;;;7.10;99.90;;;;;;5099012;28;20073;-75
2022/11/14 07:01:01;;;;;;;69.97;28.92;;;7.10;99.90;;;;;;5097852;28;20031;-77
2022/11/14 07:03:26;;;;;;;70.00;30.27;;;7.10;99.90;;;;;;5087541;28;20048;-71
2022/11/14 07:05:52;;;;;;;72.80;31.35;;;7.10;99.90;;;;;;5093243;28;20032;-76
2022/11/14 07:08:17;;;;;;;63.63;27.92;;;7.10;99.90;;;;;;5101853;28;20021;-70
2022/11/14 07:10:43;;;;;;;69.13;29.70;;;7.00;99.90;;;;;;5088451;28;20048;-71
2022/11/14 07:13:10;;;;;;;71.32;29.27;;;7.00;99.90;;;;;;5094289;28;20025;-72
2022/11/14 07:15:36;;;;;;;73.20;31.98;;;7.00;99.90;;;;;;5087526;28;20051;-71
2022/11/14 07:18:01;;;;;;;69.70;28.67;;;7.00;99.90;;;;;;5093083;28;20021;-74
2022/11/14 07:20:27;;;;;;;74.40;29.35;;;7.00;99.90;;;;;;5084012;28;20040;-72
2022/11/14 07:22:52;;;;;;;73.00;29.15;;;7.00;99.90;;;;;;5086384;28;20037;-73
2022/11/14 07:25:21;;;;;;;79.13;31.60;;;7.00;99.90;;;;;;5085768;28;20031;-75
2022/11/14 07:27:58;;;;;;;67.18;27.48;;;7.10;99.90;;;;;;5098979;28;20032;-73
2022/11/14 07:30:24;;;;;;;72.22;29.52;;;7.00;99.90;;;;;;5092974;28;20039;-74
2022/11/14 07:32:56;;;;;;;72.95;31.08;;;7.00;99.90;;;;;;5087016;28;20028;-74
2022/11/14 07:35:22;;;;;;;77.78;30.33;;;7.00;99.90;;;;;;5087549;28;20070;-74
2022/11/14 07:37:49;;;;;;;75.18;31.55;;;6.90;99.90;;;;;;5085859;28;20037;-74
2022/11/14 07:40:16;;;;;;;65.47;26.17;;;7.00;99.90;;;;;;5102537;28;20036;-72
2022/11/14 07:42:41;;;;;;;65.60;30.05;;;7.00;99.90;;;;;;5106381;28;20044;-73
2022/11/14 07:45:07;;;;;;;74.78;32.00;;;7.00;99.90;;;;;;5095753;28;20035;-72
2022/11/14 07:47:33;;;;;;;71.22;30.30;;;7.00;99.90;;;;;;5097901;28;20024;-72
2022/11/14 07:49:59;;;;;;;58.90;23.52;;;7.00;99.90;;;;;;5097258;28;20119;-70
2022/11/14 07:52:24;;;;;;;64.63;27.25;;;7.00;99.90;;;;;;5086016;28;20062;-72
2022/11/14 07:54:51;;;;;;;73.38;30.85;;;7.00;99.90;;;;;;5088593;28;20115;-73
2022/11/14 07:57:16;;;;;;;81.03;32.63;;;7.00;99.90;;;;;;5086013;28;20040;-74
2022/11/14 07:59:42;;;;;;;73.47;29.60;;;7.00;99.90;;;;;;5087912;28;20029;-71
2022/11/14 08:02:16;;;;;;;67.13;28.35;;;7.10;99.90;;;;;;5090406;28;20098;-72
2022/11/14 08:04:42;;;;;;;67.53;27.75;;;7.10;99.90;;;;;;5084768;28;20032;-73
2022/11/14 08:07:08;;;;;;;74.00;28.33;;;7.00;99.90;;;;;;5086212;28;20033;-73
2022/11/14 08:09:33;;;;;;;77.28;34.22;;;7.10;99.90;;;;;;5094980;28;20024;-76
2022/11/14 08:11:59;;;;;;;79.22;31.00;;;7.10;99.90;;;;;;5105657;28;20388;-71
2022/11/14 08:14:25;;;;;;;73.43;30.23;;;7.10;99.90;;;;;;5105633;28;20107;-73
2022/11/14 08:16:51;;;;;;;72.75;31.90;;;7.20;99.90;;;;;;5105374;28;20028;-72
2022/11/14 08:19:17;;;;;;;80.20;33.63;;;7.10;99.90;;;;;;5104833;28;20051;-74
2022/11/14 08:21:43;;;;;;;75.85;31.40;;;7.10;99.90;;;;;;5100184;28;20048;-75
2022/11/14 08:24:09;;;;;;;71.63;28.25;;;7.10;99.90;;;;;;5096433;28;20024;-71
2022/11/14 08:26:35;;;;;;;80.45;33.53;;;7.20;99.90;;;;;;5105031;28;20071;-72
2022/11/14 08:29:00;;;;;;;80.40;33.50;;;7.20;99.90;;;;;;5089039;28;20028;-74
2022/11/14 08:31:26;;;;;;;73.65;32.88;;;7.30;99.90;;;;;;5084835;28;20033;-74
2022/11/14 08:33:52;;;;;;;71.82;29.08;;;7.30;99.90;;;;;;5095150;28;20063;-72
2022/11/14 08:36:18;;;;;;;74.05;32.50;;;7.30;99.90;;;;;;5093329;28;20025;-75
2022/11/14 08:38:43;;;;;;;83.97;33.45;;;7.30;99.90;;;;;;5095438;28;20028;-76
2022/11/14 08:41:10;;;;;;;77.05;32.42;;;7.30;99.90;;;;;;5087153;28;20035;-74
2022/11/14 08:43:35;;;;;;;75.38;30.25;;;7.30;99.90;;;;;;5096820;28;20064;-72
2022/11/14 08:46:03;;;;;;;73.20;31.73;;;7.40;99.90;;;;;;5096662;28;20058;-77
2022/11/14 08:48:29;;;;;;;77.68;32.78;;;7.40;99.90;;;;;;5093522;28;20066;-74
2022/11/14 08:50:55;;;;;;;69.72;29.08;;;7.50;99.90;;;;;;5086379;28;20036;-71
2022/11/14 08:53:21;;;;;;;63.55;25.85;;;7.50;99.90;;;;;;5091452;28;20040;-72
2022/11/14 08:55:47;;;;;;;66.40;30.30;;;7.50;99.90;;;;;;5090473;28;20089;-74
2022/11/14 08:58:14;;;;;;;66.78;28.38;;;7.60;99.90;;;;;;5085054;28;20039;-76
2022/11/14 09:00:43;;;;;;;66.80;29.00;;;7.50;99.90;;;;;;5092838;28;20043;-74
2022/11/14 09:03:14;;;;;;;81.07;32.08;;;7.50;99.90;;;;;;5084349;28;20397;-75
2022/11/14 09:05:41;;;;;;;73.40;30.17;;;7.60;99.90;;;;;;5096258;28;20027;-73
2022/11/14 09:08:06;;;;;;;74.95;31.88;;;7.60;99.90;;;;;;5093287;28;20032;-77
2022/11/14 09:10:33;;;;;;;67.53;28.73;;;7.60;99.90;;;;;;5097924;28;20545;-76
2022/11/14 09:13:00;;;;;;;72.90;31.63;;;7.50;99.90;;;;;;5097107;28;20049;-78
2022/11/14 09:15:27;;;;;;;69.95;29.50;;;7.60;99.90;;;;;;5083394;28;20032;-75
2022/11/14 09:17:54;;;;;;;69.07;29.63;;;7.70;99.90;;;;;;5084578;28;20056;-78
2022/11/14 09:20:21;;;;;;;70.40;27.35;;;7.80;99.90;;;;;;5083707;28;20049;-73
2022/11/14 09:22:47;;;;;;;72.32;28.20;;;7.70;99.90;;;;;;5084190;28;20059;-73
2022/11/14 09:25:12;;;;;;;72.75;31.08;;;7.70;99.90;;;;;;5084405;28;20453;-74
2022/11/14 09:27:38;;;;;;;72.75;29.50;;;7.70;99.90;;;;;;5087278;28;20400;-75
2022/11/14 09:30:05;;;;;;;74.30;31.58;;;7.80;99.90;;;;;;5097192;28;20024;-76
2022/11/14 09:32:30;;;;;;;80.60;31.65;;;7.70;99.90;;;;;;5084339;28;20032;-77
2022/11/14 09:34:56;;;;;;;75.47;32.85;;;7.70;99.90;;;;;;5086574;28;20037;-75
2022/11/14 09:37:22;;;;;;;59.30;27.67;;;7.80;99.90;;;;;;5091375;28;20060;-75
2022/11/14 09:39:47;;;;;;;68.47;31.08;;;7.80;99.90;;;;;;5086465;28;20029;-78
2022/11/14 09:42:37;;;;;;;72.70;30.55;;;7.80;99.90;;;;;;5089329;28;21075;-72
2022/11/14 09:45:14;;;;;;;67.70;30.50;;;7.80;99.90;;;;;;5091708;28;20396;-75
2022/11/14 09:47:49;;;;;;;65.95;25.02;;;7.90;99.90;;;;;;5092707;28;20116;-74
2022/11/14 09:50:18;;;;;;;68.97;29.60;;;7.70;99.90;;;;;;5096779;28;20032;-73
2022/11/14 09:53:08;;;;;;;75.22;31.25;;;7.70;99.90;;;;;;5086091;28;20025;-75
2022/11/14 09:55:34;;;;;;;68.28;29.05;;;7.70;99.90;;;;;;5084157;28;20032;-75
2022/11/14 09:58:01;;;;;;;61.17;25.40;;;7.70;99.90;;;;;;5093779;28;20032;-74
2022/11/14 10:00:38;;;;;;;79.15;32.67;;;7.70;99.90;;;;;;5101511;28;20066;-75
2022/11/14 10:03:18;;;;;;;66.80;26.63;;;7.70;99.90;;;;;;5083906;28;20032;-74
2022/11/14 10:05:53;;;;;;;77.63;33.17;;;7.70;99.90;;;;;;5082451;28;20105;-77
2022/11/14 10:08:37;;;;;;;60.10;26.67;;;7.70;99.90;;;;;;5084226;28;20081;-74
2022/11/14 10:11:14;;;;;;;69.60;27.15;;;7.60;99.90;;;;;;5098646;28;20031;-76
2022/11/14 10:13:51;;;;;;;72.78;30.90;;;7.70;99.90;;;;;;5104598;28;20533;-77
2022/11/14 10:16:20;;;;;;;70.82;28.52;;;7.70;99.90;;;;;;5093461;28;20032;-77
2022/11/14 10:19:05;;;;;;;74.05;31.35;;;7.70;99.90;;;;;;5096968;28;20032;-78
2022/11/14 10:21:42;;;;;;;78.28;31.95;;;7.70;99.90;;;;;;5084231;28;20052;-75
2022/11/14 10:24:21;;;;;;;76.00;33.03;;;7.70;99.90;;;;;;5084763;28;20036;-78
2022/11/14 10:27:03;;;;;;;85.80;33.28;;;7.80;99.90;;;;;;5091315;28;20024;-78
2022/11/14 10:29:35;;;;;;;78.80;31.00;;;7.80;99.90;;;;;;5089759;28;20033;-78
2022/11/14 10:32:32;;;;;;;75.38;31.20;;;7.80;99.90;;;;;;5084955;28;20092;-75
2022/11/14 10:35:21;;;;;;;78.88;32.25;;;7.80;99.90;;;;;;5075232;28;20043;-76
2022/11/14 10:38:06;;;;;;;81.75;31.45;;;7.80;99.90;;;;;;5087680;28;20029;-79
2022/11/14 10:40:57;;;;;;;75.13;31.05;;;7.80;99.90;;;;;;5090215;28;20503;-74
2022/11/14 10:43:48;;;;;;;70.88;30.77;;;7.90;99.90;;;;;;5104948;28;20112;-79
2022/11/14 10:46:50;;;;;;;69.95;29.80;;;7.80;99.90;;;;;;5098181;28;20047;-74
2022/11/14 10:49:20;;;;;;;74.10;29.73;;;7.80;99.90;;;;;;5091997;28;20568;-73
2022/11/14 10:51:52;;;;;;;60.70;26.50;;;7.80;99.90;;;;;;5086410;28;20032;-74
2022/11/14 10:54:35;;;;;;;70.57;30.00;;;7.80;99.90;;;;;;5087442;28;20070;-74
2022/11/14 10:57:01;;;;;;;57.47;25.17;;;7.70;99.90;;;;;;5098369;28;20036;-76
2022/11/14 10:59:27;;;;;;;61.92;27.70;;;7.70;99.90;;;;;;5086079;28;20028;-75
2022/11/14 11:01:56;;;;;;;59.22;23.70;;;7.70;99.90;;;;;;5092224;28;20402;-75
2022/11/14 11:04:39;;;;;;;64.70;28.80;;;7.70;99.90;;;;;;5091080;28;20021;-77
2022/11/14 11:07:07;;;;;;;48.13;19.38;;;7.70;99.90;;;;;;5086043;28;20037;-75
2022/11/14 11:12:33;;;;;;;70.78;29.20;;;7.60;99.90;;;;;;5088428;28;20035;-77
2022/11/14 11:15:19;;;;;;;76.47;28.15;;;7.60;99.90;;;;;;5103342;28;20028;-74
2022/11/14 11:17:58;;;;;;;68.30;31.05;;;7.60;99.90;;;;;;5088839;28;20024;-74
2022/11/14 11:20:37;;;;;;;67.47;29.17;;;7.60;99.90;;;;;;5091048;28;20401;-75
2022/11/14 11:23:19;;;;;;;68.97;29.80;;;7.60;99.90;;;;;;5096068;28;20051;-79
2022/11/14 11:25:57;;;;;;;77.60;29.67;;;7.70;99.90;;;;;;5094988;28;20082;-76
2022/11/14 11:28:22;;;;;;;69.38;27.35;;;7.70;99.90;;;;;;5091628;28;20028;-75
2022/11/14 11:31:13;;;;;;;68.20;30.45;;;7.70;99.90;;;;;;5088185;28;20028;-74
2022/11/14 11:33:39;;;;;;;66.03;24.80;;;7.70;99.90;;;;;;5105073;28;20105;-74
2022/11/14 11:36:17;;;;;;;64.85;27.80;;;7.60;99.90;;;;;;5087874;28;20033;-78
2022/11/14 11:38:44;;;;;;;64.82;28.58;;;7.70;99.90;;;;;;5084146;28;20723;-76
2022/11/14 11:41:10;;;;;;;64.30;25.55;;;7.70;99.90;;;;;;5095960;28;20457;-76
2022/11/14 11:43:47;;;;;;;59.53;24.60;;;7.60;99.90;;;;;;5092269;28;20036;-73
2022/11/14 11:46:28;;;;;;;66.43;27.42;;;7.60;99.90;;;;;;5084329;28;20098;-75
2022/11/14 11:49:04;;;;;;;69.07;28.48;;;7.60;99.90;;;;;;5088956;28;20106;-74
2022/11/14 11:51:36;;;;;;;62.55;26.33;;;7.60;99.90;;;;;;5104331;28;20032;-75
2022/11/14 11:54:15;;;;;;;70.13;27.92;;;7.70;99.90;;;;;;5102387;28;20110;-74
2022/11/14 11:56:42;;;;;;;69.63;30.00;;;7.70;99.90;;;;;;5096320;28;20036;-75
2022/11/14 11:59:32;;;;;;;71.43;28.73;;;7.70;99.90;;;;;;5094324;28;20028;-75
2022/11/14 12:02:10;;;;;;;65.05;28.38;;;7.80;99.90;;;;;;5104015;28;20022;-76
2022/11/14 12:04:36;;;;;;;69.40;28.65;;;7.80;99.90;;;;;;5101673;28;20057;-77
2022/11/14 12:07:15;;;;;;;61.78;26.63;;;7.80;99.90;;;;;;5098717;28;20096;-74
2022/11/14 12:09:41;;;;;;;71.43;30.27;;;7.90;99.90;;;;;;5089922;28;20029;-77
2022/11/14 12:12:24;;;;;;;60.35;27.35;;;7.80;99.90;;;;;;5086573;28;20020;-78
2022/11/14 12:14:52;;;;;;;66.53;26.65;;;7.90;99.90;;;;;;5085917;28;20036;-78
2022/11/14 12:17:45;;;;;;;72.18;28.30;;;8.00;99.90;;;;;;5091245;28;20048;-76
2022/11/14 12:20:42;;;;;;;57.42;22.75;;;8.00;99.90;;;;;;5084251;28;20059;-77
2022/11/14 12:23:24;;;;;;;72.10;27.23;;;8.00;99.90;;;;;;5084217;28;20500;-75
2022/11/14 12:26:08;;;;;;;60.83;26.95;;;8.00;99.90;;;;;;5084057;28;20021;-74
2022/11/14 12:29:00;;;;;;;70.60;30.42;;;8.10;99.90;;;;;;5083943;28;20036;-76
2022/11/14 12:31:30;;;;;;;61.38;28.77;;;8.10;99.90;;;;;;5091401;28;20031;-76
2022/11/14 12:33:59;;;;;;;66.78;29.95;;;8.20;99.90;;;;;;5092773;28;20016;-76
2022/11/14 12:36:33;;;;;;;73.60;30.30;;;8.30;99.90;;;;;;5087109;28;20047;-76
2022/11/14 12:38:59;;;;;;;;;;;8.40;99.90;;;;;;5087193;28;20064;-75
2022/11/14 12:41:31;;;;;;;53.75;24.40;;;8.40;99.90;;;;;;5098073;28;20364;-77
2022/11/14 12:44:28;;;;;;;65.05;29.33;;;8.50;99.90;;;;;;5102985;28;20047;-76
2022/11/14 12:47:06;;;;;;;69.30;28.40;;;8.60;99.90;;;;;;5103965;28;20038;-79
2022/11/14 12:49:56;;;;;;;67.07;29.23;;;8.80;99.90;;;;;;5102361;28;20055;-77